createdAt,value
2022-09-23T00:01:06.392Z,79.60
2022-09-23T00:03:33.905Z,79.60
2022-09-23T00:06:02.143Z,80.00
2022-09-23T00:08:29.450Z,80.00
2022-09-23T00:10:56.754Z,79.70
2022-09-23T00:13:25.453Z,80.60
2022-09-23T00:15:52.567Z,80.00
2022-09-23T00:18:19.349Z,79.80
2022-09-23T00:20:46.296Z,80.10
2022-09-23T00:23:13.073Z,80.50
2022-09-23T00:25:39.778Z,81.80
2022-09-23T00:28:06.495Z,82.00
2022-09-23T00:30:34.606Z,80.70
2022-09-23T00:33:01.490Z,79.90
2022-09-23T00:35:28.206Z,79.90
2022-09-23T00:37:55.011Z,79.70
2022-09-23T00:40:21.826Z,79.40
2022-09-23T00:42:49.666Z,80.00
2022-09-23T00:45:16.948Z,81.00
2022-09-23T00:47:54.404Z,80.90
2022-09-23T00:50:25.902Z,80.10
2022-09-23T00:52:55.817Z,79.80
2022-09-23T00:55:26.768Z,79.50
2022-09-23T00:57:57.486Z,79.30
2022-09-23T01:00:24.691Z,79.40
2022-09-23T01:02:52.817Z,79.80
2022-09-23T01:05:20.054Z,79.60
2022-09-23T01:07:47.336Z,79.40
2022-09-23T01:10:16.645Z,79.20
2022-09-23T01:12:58.363Z,79.30
2022-09-23T01:15:35.029Z,78.70
2022-09-23T01:18:12.102Z,78.70
2022-09-23T01:21:04.108Z,78.80
2022-09-23T01:24:01.862Z,78.90
2022-09-23T01:26:44.766Z,78.40
2022-09-23T01:29:40.718Z,78.30
2022-09-23T01:32:17.782Z,78.70
2022-09-23T01:34:49.393Z,78.40
2022-09-23T01:37:23.576Z,78.30
2022-09-23T01:39:52.509Z,78.40
2022-09-23T01:42:27.511Z,78.70
2022-09-23T01:44:59.123Z,78.40
2022-09-23T01:47:33.228Z,78.50
2022-09-23T01:50:02.464Z,79.30
2022-09-23T01:52:35.768Z,79.50
2022-09-23T01:55:08.432Z,79.70
2022-09-23T01:57:39.025Z,78.90
2022-09-23T02:00:11.275Z,78.50
2022-09-23T02:02:44.397Z,79.00
2022-09-23T02:05:17.499Z,78.90
2022-09-23T02:07:49.232Z,79.40
2022-09-23T02:10:20.953Z,78.40
2022-09-23T02:12:49.408Z,78.50
2022-09-23T02:15:19.134Z,78.50
2022-09-23T02:17:51.037Z,78.60
2022-09-23T02:20:21.928Z,78.70
2022-09-23T02:22:52.929Z,79.00
2022-09-23T02:25:22.941Z,79.10
2022-09-23T02:27:56.859Z,79.20
2022-09-23T02:30:28.347Z,79.10
2022-09-23T02:33:02.556Z,78.80
2022-09-23T02:35:33.415Z,78.70
2022-09-23T02:38:12.287Z,78.60
2022-09-23T02:40:48.316Z,78.20
2022-09-23T02:43:21.305Z,78.70
2022-09-23T02:45:48.765Z,79.10
2022-09-23T02:48:21.858Z,78.70
2022-09-23T02:50:49.211Z,78.10
2022-09-23T02:53:16.057Z,78.20
2022-09-23T02:55:43.250Z,78.00
2022-09-23T02:58:12.851Z,79.00
2022-09-23T03:00:49.133Z,80.00
2022-09-23T03:03:29.695Z,79.30
2022-09-23T03:05:58.575Z,78.90
2022-09-23T03:08:34.573Z,78.90
2022-09-23T03:11:06.091Z,78.90
2022-09-23T03:13:40.889Z,78.60
2022-09-23T03:16:16.045Z,78.60
2022-09-23T03:18:49.882Z,79.40
2022-09-23T03:21:23.486Z,79.00
2022-09-23T03:23:51.056Z,78.70
2022-09-23T03:26:21.889Z,78.30
2022-09-23T03:28:49.687Z,78.70
2022-09-23T03:31:17.367Z,78.80
2022-09-23T03:33:50.736Z,78.30
2022-09-23T03:36:21.986Z,78.60
2022-09-23T03:38:51.527Z,78.00
2022-09-23T03:41:26.097Z,78.10
2022-09-23T03:43:53.388Z,78.30
2022-09-23T03:46:20.105Z,77.80
2022-09-23T03:48:48.160Z,78.40
2022-09-23T03:51:21.219Z,78.00
2022-09-23T03:53:47.984Z,78.10
2022-09-23T03:56:14.863Z,78.00
2022-09-23T03:58:41.605Z,78.20
2022-09-23T04:01:08.372Z,78.50
2022-09-23T04:03:35.156Z,78.70
2022-09-23T04:06:03.296Z,78.90
2022-09-23T04:08:30.068Z,78.90
2022-09-23T04:11:00.354Z,78.60
2022-09-23T04:13:27.139Z,78.80
2022-09-23T04:15:53.994Z,78.80
2022-09-23T04:18:21.173Z,78.50
2022-09-23T04:20:48.085Z,78.30
2022-09-23T04:23:16.333Z,78.20
2022-09-23T04:25:46.660Z,78.40
2022-09-23T04:28:13.430Z,77.90
2022-09-23T04:30:40.236Z,77.70
2022-09-23T04:33:06.998Z,78.00
2022-09-23T04:35:36.728Z,78.60
2022-09-23T04:38:07.219Z,78.40
2022-09-23T04:40:36.064Z,78.10
2022-09-23T04:43:03.056Z,78.50
2022-09-23T04:45:29.790Z,78.50
2022-09-23T04:47:56.657Z,78.30
2022-09-23T04:50:23.416Z,78.70
2022-09-23T04:52:50.116Z,78.30
2022-09-23T04:55:17.065Z,78.30
2022-09-23T04:57:45.209Z,78.20
2022-09-23T05:00:13.133Z,78.40
2022-09-23T05:02:43.240Z,78.40
2022-09-23T05:05:10.043Z,78.50
2022-09-23T05:07:36.918Z,78.90
2022-09-23T05:10:04.607Z,78.80
2022-09-23T05:12:31.299Z,79.60
2022-09-23T05:14:59.429Z,79.50
2022-09-23T05:17:26.212Z,79.50
2022-09-23T05:19:52.922Z,78.80
2022-09-23T05:22:19.654Z,78.30
2022-09-23T05:24:46.376Z,78.30
2022-09-23T05:27:13.056Z,78.20
2022-09-23T05:29:39.924Z,78.30
2022-09-23T05:32:07.972Z,78.40
2022-09-23T05:34:34.704Z,78.80
2022-09-23T05:37:01.454Z,79.10
2022-09-23T05:39:28.147Z,80.00
2022-09-23T05:41:55.000Z,79.30
2022-09-23T05:44:21.737Z,79.50
2022-09-23T05:46:48.582Z,79.80
2022-09-23T05:49:16.695Z,79.20
2022-09-23T05:51:43.507Z,78.80
2022-09-23T05:54:10.623Z,79.10
2022-09-23T05:56:37.714Z,79.10
2022-09-23T05:59:05.842Z,79.90
2022-09-23T06:01:34.453Z,80.30
2022-09-23T06:04:03.714Z,81.30
2022-09-23T06:06:33.598Z,81.10
2022-09-23T06:09:01.192Z,81.70
2022-09-23T06:11:30.693Z,81.80
2022-09-23T06:13:58.608Z,81.30
2022-09-23T06:16:25.434Z,81.10
2022-09-23T06:18:52.278Z,81.30
2022-09-23T06:21:19.220Z,81.70
2022-09-23T06:23:47.359Z,82.40
2022-09-23T06:26:15.634Z,83.60
2022-09-23T06:28:44.496Z,82.90
2022-09-23T06:31:13.856Z,84.40
2022-09-23T06:33:41.706Z,84.90
2022-09-23T06:36:09.096Z,84.50
2022-09-23T06:38:39.142Z,82.00
2022-09-23T06:41:07.429Z,77.50
2022-09-23T06:43:34.262Z,76.50
2022-09-23T06:46:02.570Z,76.10
2022-09-23T06:48:30.268Z,75.80
2022-09-23T06:50:59.718Z,75.80
2022-09-23T06:53:26.440Z,75.80
2022-09-23T06:55:58.573Z,75.90
2022-09-23T06:58:26.665Z,76.00
2022-09-23T07:00:53.500Z,76.10
2022-09-23T07:03:20.231Z,75.90
2022-09-23T07:05:46.915Z,76.00
2022-09-23T07:08:13.648Z,75.80
2022-09-23T07:10:40.360Z,75.70
2022-09-23T07:13:07.246Z,75.80
2022-09-23T07:15:35.384Z,75.80
2022-09-23T07:18:02.090Z,75.70
2022-09-23T07:20:28.865Z,75.80
2022-09-23T07:22:55.736Z,75.60
2022-09-23T07:25:22.613Z,75.60
2022-09-23T07:27:49.323Z,76.10
2022-09-23T07:30:23.376Z,75.80
2022-09-23T07:32:53.085Z,75.90
2022-09-23T07:35:19.933Z,76.00
2022-09-23T07:37:46.652Z,76.00
2022-09-23T07:40:13.568Z,77.00
2022-09-23T07:42:40.481Z,76.60
2022-09-23T07:45:08.740Z,76.40
2022-09-23T07:47:35.542Z,76.50
2022-09-23T07:50:04.190Z,76.50
2022-09-23T07:52:30.939Z,76.60
2022-09-23T07:54:57.683Z,76.80
2022-09-23T07:57:24.529Z,76.70
2022-09-23T07:59:51.284Z,76.70
2022-09-23T08:02:18.078Z,76.70
2022-09-23T08:04:44.854Z,76.50
2022-09-23T08:07:13.435Z,76.40
2022-09-23T08:09:42.475Z,76.20
2022-09-23T08:12:15.211Z,76.00
2022-09-23T08:14:42.991Z,76.10
2022-09-23T08:17:11.206Z,76.70
2022-09-23T08:19:37.927Z,76.50
2022-09-23T08:22:04.901Z,76.40
2022-09-23T08:24:32.956Z,76.60
2022-09-23T08:26:59.753Z,76.60
2022-09-23T08:29:26.499Z,76.70
2022-09-23T08:31:53.938Z,76.80
2022-09-23T08:34:21.941Z,77.10
2022-09-23T08:36:48.918Z,77.20
2022-09-23T08:39:17.074Z,77.00
2022-09-23T08:41:56.105Z,76.90
2022-09-23T08:44:29.790Z,76.90
2022-09-23T08:47:09.380Z,76.90
2022-09-23T08:49:39.657Z,77.20
2022-09-23T08:52:11.830Z,77.20
2022-09-23T08:54:38.640Z,77.60
2022-09-23T08:57:09.360Z,77.80
2022-09-23T08:59:41.540Z,78.00
2022-09-23T09:02:14.484Z,78.00
2022-09-23T09:04:43.488Z,78.20
2022-09-23T09:07:35.798Z,78.30
2022-09-23T09:10:09.672Z,78.60
2022-09-23T09:12:43.122Z,78.80
2022-09-23T09:15:14.300Z,79.20
2022-09-23T09:17:51.021Z,79.30
2022-09-23T09:20:23.760Z,79.70
2022-09-23T09:22:54.327Z,79.90
2022-09-23T09:25:35.540Z,80.20
2022-09-23T09:28:11.038Z,80.80
2022-09-23T09:30:38.267Z,81.20
2022-09-23T09:33:12.393Z,81.90
2022-09-23T09:35:52.643Z,83.00
2022-09-23T09:38:19.512Z,83.10
2022-09-23T09:40:48.005Z,83.10
2022-09-23T09:43:19.231Z,84.40
2022-09-23T09:45:57.963Z,84.50
2022-09-23T09:48:31.572Z,85.30
2022-09-23T09:51:17.494Z,85.10
2022-09-23T09:53:44.152Z,85.90
2022-09-23T09:56:14.129Z,86.60
2022-09-23T09:58:46.841Z,86.30
2022-09-23T10:01:21.631Z,86.70
2022-09-23T10:03:51.344Z,87.80
2022-09-23T10:06:21.672Z,87.70
2022-09-23T10:09:09.239Z,87.90
2022-09-23T10:11:36.729Z,88.60
2022-09-23T10:14:10.740Z,89.40
2022-09-23T10:16:37.537Z,90.00
2022-09-23T10:19:13.786Z,90.00
2022-09-23T10:21:40.776Z,90.20
2022-09-23T10:24:08.326Z,90.00
2022-09-23T10:26:42.017Z,90.20
2022-09-23T10:29:23.981Z,90.30
2022-09-23T10:32:10.754Z,90.50
2022-09-23T10:34:43.076Z,90.90
2022-09-23T10:37:16.598Z,91.00
2022-09-23T10:39:43.838Z,91.10
2022-09-23T10:42:20.333Z,91.30
2022-09-23T10:45:00.489Z,91.60
2022-09-23T10:47:36.930Z,91.80
2022-09-23T10:50:14.569Z,92.10
2022-09-23T10:53:09.029Z,92.30
2022-09-23T10:55:58.511Z,93.10
2022-09-23T10:58:53.346Z,93.10
2022-09-23T11:01:28.190Z,92.90
2022-09-23T11:04:07.833Z,93.20
2022-09-23T11:06:47.789Z,94.00
2022-09-23T11:09:28.995Z,93.70
2022-09-23T11:12:07.052Z,94.00
2022-09-23T11:14:54.937Z,94.30
2022-09-23T11:17:46.158Z,94.50
2022-09-23T11:20:26.196Z,94.90
2022-09-23T11:23:13.471Z,95.20
2022-09-23T11:25:47.137Z,95.90
2022-09-23T11:28:46.275Z,95.70
2022-09-23T11:31:25.559Z,95.90
2022-09-23T11:34:07.187Z,96.30
2022-09-23T11:36:39.676Z,96.50
2022-09-23T11:39:11.759Z,96.80
2022-09-23T11:41:41.304Z,96.90
2022-09-23T11:44:14.773Z,97.20
2022-09-23T11:46:45.069Z,97.20
2022-09-23T11:49:18.793Z,97.60
2022-09-23T11:51:57.060Z,97.70
2022-09-23T11:54:27.948Z,98.10
2022-09-23T11:56:59.067Z,98.60
2022-09-23T11:59:39.582Z,98.40
2022-09-23T12:02:20.626Z,98.50
2022-09-23T12:04:58.705Z,98.60
2022-09-23T12:07:31.035Z,98.90
2022-09-23T12:10:01.989Z,99.20
2022-09-23T12:12:37.526Z,99.40
2022-09-23T12:15:09.324Z,99.40
2022-09-23T12:18:07.716Z,99.40
2022-09-23T12:20:51.810Z,99.70
2022-09-23T12:23:36.956Z,99.90
2022-09-23T12:26:07.617Z,99.90
2022-09-23T12:28:36.780Z,99.90
2022-09-23T12:31:06.250Z,99.90
2022-09-23T12:33:33.816Z,99.90
2022-09-23T12:36:05.759Z,99.90
2022-09-23T12:38:35.033Z,99.90
2022-09-23T12:41:02.839Z,99.90
2022-09-23T12:43:31.552Z,99.90
2022-09-23T12:46:19.672Z,99.90
2022-09-23T12:48:57.505Z,99.90
2022-09-23T12:51:26.540Z,99.90
2022-09-23T12:53:55.801Z,99.90
2022-09-23T12:56:25.920Z,99.90
2022-09-23T12:59:14.325Z,99.90
2022-09-23T13:01:41.470Z,99.90
2022-09-23T13:04:42.304Z,99.90
2022-09-23T13:07:15.812Z,99.90
2022-09-23T13:09:46.563Z,99.90
2022-09-23T13:12:19.160Z,99.90
2022-09-23T13:14:47.069Z,99.90
2022-09-23T13:17:25.883Z,99.90
2022-09-23T13:19:59.626Z,99.90
2022-09-23T13:22:56.152Z,99.90
2022-09-23T13:25:26.900Z,99.90
2022-09-23T13:27:55.860Z,99.90
2022-09-23T13:30:26.497Z,99.90
2022-09-23T13:33:03.674Z,99.90
2022-09-23T13:35:34.509Z,99.90
2022-09-23T13:38:10.054Z,99.90
2022-09-23T13:40:39.592Z,99.90
2022-09-23T13:43:12.298Z,99.90
2022-09-23T13:45:41.690Z,99.90
2022-09-23T13:48:11.524Z,99.90
2022-09-23T13:50:39.618Z,99.90
2022-09-23T13:53:09.095Z,99.90
2022-09-23T13:55:38.774Z,99.90
2022-09-23T13:58:13.811Z,99.90
2022-09-23T14:00:41.008Z,99.90
2022-09-23T14:03:18.627Z,99.90
2022-09-23T14:05:45.963Z,99.90
2022-09-23T14:08:13.026Z,99.90
2022-09-23T14:10:41.287Z,99.90
2022-09-23T14:13:14.578Z,99.90
2022-09-23T14:15:41.344Z,99.90
2022-09-23T14:18:08.354Z,99.90
2022-09-23T14:20:45.690Z,99.90
2022-09-23T14:23:13.518Z,99.90
2022-09-23T14:25:42.885Z,99.90
2022-09-23T14:28:14.124Z,99.90
2022-09-23T14:30:41.167Z,99.90
2022-09-23T14:33:09.675Z,99.90
2022-09-23T14:35:41.209Z,99.90
2022-09-23T14:38:08.315Z,99.90
2022-09-23T14:40:37.802Z,99.90
2022-09-23T14:43:14.429Z,99.90
2022-09-23T14:45:45.087Z,99.90
2022-09-23T14:48:16.456Z,99.90
2022-09-23T14:50:47.945Z,99.90
2022-09-23T14:53:39.111Z,99.90
2022-09-23T14:56:15.188Z,99.90
2022-09-23T14:58:51.745Z,99.90
2022-09-23T15:01:26.258Z,99.90
2022-09-23T15:03:53.150Z,99.90
2022-09-23T15:06:21.986Z,99.90
2022-09-23T15:08:48.908Z,99.90
2022-09-23T15:11:15.632Z,99.90
2022-09-23T15:13:47.871Z,99.90
2022-09-23T15:16:16.606Z,99.90
2022-09-23T15:18:45.214Z,99.90
2022-09-23T15:21:14.490Z,99.90
2022-09-23T15:23:46.049Z,99.90
2022-09-23T15:26:15.625Z,99.90
2022-09-23T15:28:44.116Z,99.90
2022-09-23T15:31:11.705Z,99.90
2022-09-23T15:33:38.471Z,99.90
2022-09-23T15:36:05.608Z,99.90
2022-09-23T15:38:32.428Z,99.90
2022-09-23T15:40:59.204Z,99.90
2022-09-23T15:43:26.091Z,99.90
2022-09-23T15:45:56.691Z,99.90
2022-09-23T15:48:27.355Z,99.90
2022-09-23T15:50:54.688Z,99.90
2022-09-23T15:53:24.382Z,99.90
2022-09-23T15:55:51.096Z,99.90
2022-09-23T15:58:17.866Z,99.90
2022-09-23T16:00:44.938Z,99.90
2022-09-23T16:03:14.436Z,99.90
2022-09-23T16:05:43.914Z,99.90
2022-09-23T16:08:10.745Z,99.90
2022-09-23T16:10:38.217Z,99.90
2022-09-23T16:13:07.405Z,99.90
2022-09-23T16:15:34.501Z,99.90
2022-09-23T16:18:01.660Z,99.90
2022-09-23T16:20:30.255Z,99.90
2022-09-23T16:23:06.493Z,99.90
2022-09-23T16:25:34.524Z,99.90
2022-09-23T16:28:02.072Z,99.90
2022-09-23T16:30:30.917Z,99.90
2022-09-23T16:32:57.649Z,99.90
2022-09-23T16:35:26.369Z,99.90
2022-09-23T16:37:54.663Z,99.90
2022-09-23T16:40:23.113Z,99.90
2022-09-23T16:42:51.610Z,99.90
2022-09-23T16:45:20.122Z,99.90
2022-09-23T16:47:48.365Z,99.90
2022-09-23T16:50:17.220Z,99.90
2022-09-23T16:52:44.397Z,99.90
2022-09-23T16:55:13.565Z,99.90
2022-09-23T16:57:40.911Z,99.90
2022-09-23T17:00:12.847Z,99.90
2022-09-23T17:02:39.698Z,99.90
2022-09-23T17:05:07.036Z,99.90
2022-09-23T17:07:33.745Z,99.90
2022-09-23T17:10:00.424Z,99.90
2022-09-23T17:12:30.867Z,99.90
2022-09-23T17:14:57.600Z,99.90
2022-09-23T17:17:24.330Z,99.90
2022-09-23T17:19:51.050Z,99.90
2022-09-23T17:22:17.895Z,99.90
2022-09-23T17:24:44.621Z,99.90
2022-09-23T17:27:11.392Z,99.90
2022-09-23T17:29:39.531Z,99.90
2022-09-23T17:32:06.229Z,99.90
2022-09-23T17:34:32.989Z,99.90
2022-09-23T17:36:59.702Z,99.90
2022-09-23T17:39:26.449Z,99.90
2022-09-23T17:41:53.185Z,99.90
2022-09-23T17:44:19.912Z,99.90
2022-09-23T17:46:47.973Z,99.90
2022-09-23T17:49:14.724Z,99.90
2022-09-23T17:51:41.421Z,99.90
2022-09-23T17:54:08.211Z,99.90
2022-09-23T17:56:35.053Z,99.90
2022-09-23T17:59:02.235Z,99.90
2022-09-23T18:01:29.476Z,99.90
2022-09-23T18:03:59.451Z,99.80
2022-09-23T18:06:27.695Z,99.90
2022-09-23T18:08:54.901Z,99.90
2022-09-23T18:11:24.013Z,99.90
2022-09-23T18:13:52.452Z,99.90
2022-09-23T18:16:20.669Z,99.90
2022-09-23T18:18:51.664Z,99.80
2022-09-23T18:21:20.309Z,99.60
2022-09-23T18:23:47.765Z,99.70
2022-09-23T18:26:15.061Z,99.30
2022-09-23T18:28:41.827Z,99.00
2022-09-23T18:31:09.165Z,98.80
2022-09-23T18:33:36.070Z,98.90
2022-09-23T18:36:03.419Z,98.60
2022-09-23T18:38:31.895Z,98.20
2022-09-23T18:40:59.389Z,98.20
2022-09-23T18:43:33.781Z,97.80
2022-09-23T18:46:04.730Z,98.00
2022-09-23T18:48:33.020Z,97.90
2022-09-23T18:50:59.700Z,98.10
2022-09-23T18:53:26.540Z,98.30
2022-09-23T18:55:54.677Z,98.00
2022-09-23T18:58:21.368Z,98.30
2022-09-23T19:00:48.107Z,98.40
2022-09-23T19:03:16.530Z,98.10
2022-09-23T19:05:43.223Z,98.10
2022-09-23T19:08:09.927Z,98.20
2022-09-23T19:10:36.617Z,97.90
2022-09-23T19:13:04.689Z,97.80
2022-09-23T19:15:32.619Z,97.70
2022-09-23T19:17:59.471Z,97.60
2022-09-23T19:20:26.180Z,97.80
2022-09-23T19:22:52.975Z,97.60
2022-09-23T19:25:19.704Z,97.40
2022-09-23T19:27:46.616Z,96.90
2022-09-23T19:30:14.812Z,97.20
2022-09-23T19:32:45.318Z,96.80
2022-09-23T19:35:13.703Z,96.90
2022-09-23T19:37:43.660Z,96.30
2022-09-23T19:40:13.550Z,96.90
2022-09-23T19:42:43.467Z,97.10
2022-09-23T19:45:11.015Z,96.70
2022-09-23T19:47:41.434Z,96.70
2022-09-23T19:50:10.662Z,96.30
2022-09-23T19:52:41.140Z,96.60
2022-09-23T19:55:12.610Z,96.10
2022-09-23T19:57:41.278Z,95.70
2022-09-23T20:00:11.428Z,95.10
2022-09-23T20:02:45.370Z,95.60
2022-09-23T20:05:16.247Z,95.40
2022-09-23T20:07:46.493Z,95.60
2022-09-23T20:10:16.911Z,95.60
2022-09-23T20:12:47.071Z,95.90
2022-09-23T20:15:15.097Z,95.30
2022-09-23T20:17:45.122Z,95.50
2022-09-23T20:20:13.817Z,95.30
2022-09-23T20:22:41.736Z,95.00
2022-09-23T20:25:22.215Z,94.60
2022-09-23T20:27:50.581Z,95.20
2022-09-23T20:30:17.489Z,95.30
2022-09-23T20:32:45.597Z,95.60
2022-09-23T20:35:12.304Z,94.50
2022-09-23T20:37:39.213Z,94.90
2022-09-23T20:40:06.776Z,94.80
2022-09-23T20:42:33.529Z,95.00
2022-09-23T20:45:00.273Z,94.70
2022-09-23T20:47:27.084Z,94.50
2022-09-23T20:49:55.143Z,94.10
2022-09-23T20:52:21.932Z,94.40
2022-09-23T20:54:48.681Z,94.80
2022-09-23T20:57:15.389Z,94.20
2022-09-23T20:59:42.121Z,94.30
2022-09-23T21:02:10.237Z,95.00
2022-09-23T21:04:36.998Z,94.50
2022-09-23T21:07:05.056Z,93.80
2022-09-23T21:09:31.739Z,94.80
2022-09-23T21:11:58.498Z,94.60
2022-09-23T21:14:25.196Z,95.30
2022-09-23T21:16:52.059Z,94.80
2022-09-23T21:19:18.817Z,94.90
2022-09-23T21:21:45.526Z,95.00
2022-09-23T21:27:00.417Z,94.60
2022-09-23T21:29:27.139Z,94.30
2022-09-23T21:31:53.941Z,94.50
2022-09-23T21:34:20.778Z,94.20
2022-09-23T21:36:48.025Z,94.10
2022-09-23T21:39:16.241Z,94.80
2022-09-23T21:41:42.931Z,94.90
2022-09-23T21:44:09.749Z,94.00
2022-09-23T21:46:38.002Z,94.40
2022-09-23T21:49:05.314Z,94.10
2022-09-23T21:51:34.625Z,93.80
2022-09-23T21:54:01.418Z,94.70
2022-09-23T21:56:30.957Z,94.70
2022-09-23T21:58:58.832Z,94.00
2022-09-23T22:01:27.125Z,93.60
2022-09-23T22:03:56.079Z,93.70
2022-09-23T22:06:24.561Z,93.60
2022-09-23T22:08:53.983Z,94.40
2022-09-23T22:11:23.021Z,93.80
2022-09-23T22:13:51.064Z,93.80
2022-09-23T22:16:17.813Z,94.30
2022-09-23T22:18:44.592Z,94.60
2022-09-23T22:21:11.301Z,93.60
2022-09-23T22:23:38.068Z,94.40
2022-09-23T22:26:04.774Z,93.70
2022-09-23T22:28:32.563Z,93.80
2022-09-23T22:31:00.701Z,94.80
2022-09-23T22:33:27.437Z,94.30
2022-09-23T22:36:02.719Z,93.80
2022-09-23T22:38:29.626Z,93.60
2022-09-23T22:40:56.479Z,94.30
2022-09-23T22:43:23.397Z,93.80
2022-09-23T22:45:50.515Z,94.30
2022-09-23T22:48:18.595Z,94.40
2022-09-23T22:50:45.426Z,94.20
2022-09-23T22:53:12.189Z,95.00
2022-09-23T22:55:38.897Z,93.90
2022-09-23T22:58:27.616Z,93.90
2022-09-23T23:00:55.394Z,94.00
2022-09-23T23:03:23.568Z,93.90
2022-09-23T23:05:50.686Z,93.90
2022-09-23T23:08:17.431Z,94.40
2022-09-23T23:10:44.138Z,93.50
2022-09-23T23:13:10.847Z,93.70
2022-09-23T23:15:38.093Z,93.90
2022-09-23T23:18:05.340Z,94.80
2022-09-23T23:20:33.518Z,94.30
2022-09-23T23:23:01.918Z,93.50
2022-09-23T23:25:28.764Z,94.80
2022-09-23T23:27:55.784Z,94.30
2022-09-23T23:30:22.588Z,94.80
2022-09-23T23:32:49.341Z,94.00
2022-09-23T23:35:16.554Z,94.50
2022-09-23T23:37:44.620Z,93.80
2022-09-23T23:40:11.526Z,95.10
2022-09-23T23:42:38.290Z,94.50
2022-09-23T23:45:06.001Z,94.20
2022-09-23T23:47:32.715Z,94.20
2022-09-23T23:49:59.399Z,94.60
2022-09-23T23:52:26.138Z,95.20
2022-09-23T23:54:54.215Z,94.00
2022-09-23T23:57:21.106Z,94.20
2022-09-23T23:59:47.908Z,94.80
